createdAt,value
2023-03-02T00:01:06.219Z,23.83
2023-03-02T00:04:15.013Z,24.92
2023-03-02T00:07:19.357Z,24.10
2023-03-02T00:10:25.094Z,24.63
2023-03-02T00:13:27.236Z,24.73
2023-03-02T00:16:31.889Z,24.38
2023-03-02T00:19:36.912Z,25.67
2023-03-02T00:22:40.383Z,24.52
2023-03-02T00:25:43.569Z,25.15
2023-03-02T00:28:46.313Z,25.38
2023-03-02T00:31:48.866Z,25.40
2023-03-02T00:34:53.428Z,24.88
2023-03-02T00:37:55.434Z,25.02
2023-03-02T00:41:02.347Z,26.75
2023-03-02T00:44:05.448Z,26.38
2023-03-02T00:47:07.442Z,26.08
2023-03-02T00:50:10.615Z,25.30
2023-03-02T00:53:13.734Z,25.02
2023-03-02T00:56:19.691Z,25.05
2023-03-02T00:59:21.576Z,24.17
2023-03-02T01:02:23.485Z,24.77
2023-03-02T01:05:26.259Z,25.80
2023-03-02T01:08:28.505Z,23.73
2023-03-02T01:11:31.654Z,25.38
2023-03-02T01:14:33.720Z,23.92
2023-03-02T01:17:35.917Z,24.77
2023-03-02T01:20:38.094Z,24.08
2023-03-02T01:23:42.595Z,24.63
2023-03-02T01:26:46.041Z,24.30
2023-03-02T01:29:47.943Z,23.60
2023-03-02T01:32:52.247Z,24.35
2023-03-02T01:35:54.072Z,23.80
2023-03-02T01:38:59.459Z,24.80
2023-03-02T01:42:02.626Z,24.23
2023-03-02T01:45:06.613Z,24.35
2023-03-02T01:48:10.268Z,22.98
2023-03-02T01:51:15.628Z,23.60
2023-03-02T01:54:23.098Z,24.65
2023-03-02T01:57:32.943Z,22.95
2023-03-02T02:00:37.867Z,24.30
2023-03-02T02:03:39.856Z,24.15
2023-03-02T02:06:49.312Z,25.65
2023-03-02T02:09:52.089Z,24.02
2023-03-02T02:12:55.582Z,23.05
2023-03-02T02:16:00.630Z,23.92
2023-03-02T02:19:04.111Z,24.58
2023-03-02T02:22:06.213Z,24.92
2023-03-02T02:25:22.478Z,24.00
2023-03-02T02:28:31.820Z,25.65
2023-03-02T02:31:39.228Z,24.80
2023-03-02T02:34:48.469Z,24.00
2023-03-02T02:37:53.567Z,23.52
2023-03-02T02:40:58.168Z,24.02
2023-03-02T02:44:01.780Z,24.33
2023-03-02T02:47:13.968Z,24.15
2023-03-02T02:50:19.007Z,23.88
2023-03-02T02:53:26.235Z,24.42
2023-03-02T02:56:31.611Z,24.10
2023-03-02T02:59:37.967Z,23.50
2023-03-02T03:02:47.010Z,23.98
2023-03-02T03:05:49.022Z,23.92
2023-03-02T03:08:57.664Z,25.05
2023-03-02T03:12:04.190Z,23.83
2023-03-02T03:15:08.728Z,24.45
2023-03-02T03:18:10.633Z,24.45
2023-03-02T03:21:13.510Z,24.05
2023-03-02T03:24:16.128Z,24.08
2023-03-02T03:27:18.109Z,24.33
2023-03-02T03:30:21.950Z,22.08
2023-03-02T03:33:24.306Z,23.55
2023-03-02T03:36:27.614Z,24.45
2023-03-02T03:39:29.729Z,23.50
2023-03-02T03:42:31.922Z,24.88
2023-03-02T03:45:35.094Z,25.15
2023-03-02T03:48:36.979Z,26.15
2023-03-02T03:51:39.255Z,24.85
2023-03-02T03:54:45.094Z,25.20
2023-03-02T03:57:47.278Z,26.58
2023-03-02T04:00:53.808Z,27.25
2023-03-02T04:03:58.423Z,26.17
2023-03-02T04:07:00.836Z,24.42
2023-03-02T04:10:04.116Z,25.90
2023-03-02T04:13:06.212Z,24.65
2023-03-02T04:16:09.375Z,25.70
2023-03-02T04:19:14.066Z,25.45
2023-03-02T04:22:17.231Z,26.27
2023-03-02T04:25:21.640Z,25.05
2023-03-02T04:28:23.479Z,24.70
2023-03-02T04:31:30.118Z,25.92
2023-03-02T04:34:32.465Z,23.95
2023-03-02T04:37:36.777Z,23.63
2023-03-02T04:40:38.670Z,22.70
2023-03-02T04:43:43.109Z,22.80
2023-03-02T04:46:47.532Z,23.55
2023-03-02T04:49:49.332Z,23.05
2023-03-02T04:52:51.950Z,21.75
2023-03-02T04:55:53.722Z,23.38
2023-03-02T04:58:56.259Z,23.33
2023-03-02T05:02:01.281Z,23.00
2023-03-02T05:05:03.315Z,23.17
2023-03-02T05:08:08.616Z,23.63
2023-03-02T05:11:16.717Z,24.65
2023-03-02T05:14:19.145Z,25.77
2023-03-02T05:17:22.400Z,24.42
2023-03-02T05:20:25.344Z,24.00
2023-03-02T05:23:27.975Z,23.42
2023-03-02T05:26:30.383Z,25.42
2023-03-02T05:29:33.076Z,24.02
2023-03-02T05:32:36.890Z,23.55
2023-03-02T05:35:39.127Z,23.20
2023-03-02T05:38:41.414Z,23.00
2023-03-02T05:41:43.437Z,22.90
2023-03-02T05:44:45.235Z,23.65
2023-03-02T05:47:51.582Z,25.10
2023-03-02T05:50:53.826Z,24.58
2023-03-02T05:53:55.822Z,24.98
2023-03-02T05:56:57.696Z,26.30
2023-03-02T06:00:00.189Z,25.92
2023-03-02T06:03:03.892Z,24.05
2023-03-02T06:06:08.545Z,25.05
2023-03-02T06:09:10.388Z,26.48
2023-03-02T06:12:15.303Z,25.55
2023-03-02T06:15:17.502Z,26.98
2023-03-02T06:18:23.432Z,25.08
2023-03-02T06:21:25.267Z,27.40
2023-03-02T06:24:27.535Z,27.20
2023-03-02T06:27:32.529Z,29.52
2023-03-02T06:30:34.758Z,26.67
2023-03-02T06:33:38.452Z,26.98
2023-03-02T06:36:40.525Z,26.92
2023-03-02T06:39:42.376Z,27.27
2023-03-02T06:42:47.418Z,27.00
2023-03-02T06:45:49.576Z,26.70
2023-03-02T06:48:52.730Z,28.20
2023-03-02T06:51:54.545Z,28.08
2023-03-02T06:54:56.638Z,29.08
2023-03-02T06:57:58.422Z,28.15
2023-03-02T07:01:00.586Z,26.25
2023-03-02T07:04:04.101Z,28.05
2023-03-02T07:07:06.136Z,28.83
2023-03-02T07:10:09.847Z,26.40
2023-03-02T07:13:11.664Z,28.23
2023-03-02T07:16:14.875Z,29.70
2023-03-02T07:19:18.419Z,27.98
2023-03-02T07:22:20.551Z,29.75
2023-03-02T07:25:22.849Z,27.58
2023-03-02T07:28:27.428Z,28.05
2023-03-02T07:31:29.325Z,28.95
2023-03-02T07:34:32.939Z,29.73
2023-03-02T07:37:34.771Z,28.83
2023-03-02T07:40:40.996Z,26.17
2023-03-02T07:43:43.325Z,28.08
2023-03-02T07:46:45.464Z,28.02
2023-03-02T07:49:49.494Z,29.90
2023-03-02T07:52:52.196Z,28.80
2023-03-02T07:55:54.532Z,29.15
2023-03-02T07:58:56.366Z,28.60
2023-03-02T08:01:58.487Z,31.08
2023-03-02T08:05:03.113Z,30.70
2023-03-02T08:08:05.453Z,32.90
2023-03-02T08:11:09.528Z,31.52
2023-03-02T08:14:11.517Z,32.60
2023-03-02T08:17:13.280Z,32.22
2023-03-02T08:20:19.304Z,31.95
2023-03-02T08:23:21.978Z,31.40
2023-03-02T08:26:23.779Z,31.35
2023-03-02T08:29:26.595Z,33.58
2023-03-02T08:32:28.471Z,32.85
2023-03-02T08:35:32.009Z,32.22
2023-03-02T08:38:36.570Z,32.63
2023-03-02T08:41:38.679Z,32.03
2023-03-02T08:44:43.136Z,32.42
2023-03-02T08:47:45.107Z,32.25
2023-03-02T08:51:01.357Z,32.33
2023-03-02T08:54:03.388Z,29.27
2023-03-02T08:57:05.674Z,29.27
2023-03-02T09:00:08.896Z,29.75
2023-03-02T09:03:11.146Z,30.17
2023-03-02T09:06:14.620Z,31.15
2023-03-02T09:09:16.516Z,30.00
2023-03-02T09:12:18.269Z,30.05
2023-03-02T09:15:20.573Z,31.58
2023-03-02T09:18:22.348Z,30.98
2023-03-02T09:21:30.890Z,29.67
2023-03-02T09:24:33.692Z,30.15
2023-03-02T09:27:35.491Z,30.00
2023-03-02T09:30:37.628Z,30.63
2023-03-02T09:33:39.730Z,29.90
2023-03-02T09:36:43.189Z,29.15
2023-03-02T09:39:45.380Z,29.13
2023-03-02T09:43:16.678Z,30.30
2023-03-02T09:46:26.017Z,29.55
2023-03-02T09:49:35.832Z,28.67
2023-03-02T09:52:46.717Z,28.90
2023-03-02T09:55:54.332Z,28.25
2023-03-02T09:59:01.392Z,28.40
2023-03-02T10:02:17.395Z,28.35
2023-03-02T10:05:24.060Z,27.13
2023-03-02T10:08:30.693Z,27.98
2023-03-02T10:11:43.118Z,26.10
2023-03-02T10:14:53.591Z,27.15
2023-03-02T10:18:05.833Z,26.85
2023-03-02T10:21:13.893Z,26.25
2023-03-02T10:24:29.773Z,25.50
2023-03-02T10:27:36.845Z,24.58
2023-03-02T10:30:40.429Z,23.83
2023-03-02T10:33:42.601Z,23.58
2023-03-02T10:36:45.144Z,24.13
2023-03-02T10:39:50.904Z,22.65
2023-03-02T10:42:54.314Z,22.17
2023-03-02T10:46:01.467Z,22.70
2023-03-02T10:49:03.414Z,23.67
2023-03-02T10:52:12.495Z,22.60
2023-03-02T10:55:16.701Z,22.30
2023-03-02T10:58:24.051Z,20.73
2023-03-02T11:01:26.460Z,19.33
2023-03-02T11:04:28.833Z,20.63
2023-03-02T11:07:31.097Z,21.25
2023-03-02T11:10:37.781Z,20.17
2023-03-02T11:13:39.841Z,20.60
2023-03-02T11:16:42.049Z,21.08
2023-03-02T11:19:43.909Z,19.13
2023-03-02T11:22:59.556Z,19.52
2023-03-02T11:26:11.401Z,19.60
2023-03-02T11:29:28.154Z,21.00
2023-03-02T11:32:37.093Z,20.33
2023-03-02T11:35:47.075Z,18.58
2023-03-02T11:38:53.627Z,19.35
2023-03-02T11:41:57.639Z,19.35
2023-03-02T11:45:08.883Z,19.60
2023-03-02T11:48:18.699Z,18.35
2023-03-02T11:51:23.985Z,19.38
2023-03-02T11:54:40.745Z,17.98
2023-03-02T11:57:47.460Z,16.10
2023-03-02T12:00:50.716Z,14.52
2023-03-02T12:03:53.334Z,15.93
2023-03-02T12:06:58.082Z,15.20
2023-03-02T12:10:04.442Z,15.50
2023-03-02T12:13:19.944Z,15.55
2023-03-02T12:16:23.517Z,16.02
2023-03-02T12:19:28.160Z,15.63
2023-03-02T12:22:31.643Z,15.60
2023-03-02T12:25:41.080Z,15.90
2023-03-02T12:28:59.043Z,17.60
2023-03-02T12:32:12.581Z,17.13
2023-03-02T12:35:20.599Z,17.10
2023-03-02T12:38:30.880Z,15.90
2023-03-02T12:41:49.526Z,16.75
2023-03-02T12:45:03.319Z,14.70
2023-03-02T12:48:23.122Z,14.30
2023-03-02T12:54:30.375Z,13.95
2023-03-02T12:57:33.328Z,13.80
2023-03-02T13:00:37.097Z,14.52
2023-03-02T13:03:46.283Z,13.38
2023-03-02T13:09:56.668Z,14.15
2023-03-02T13:13:00.416Z,14.20
2023-03-02T13:16:07.266Z,13.38
2023-03-02T13:19:13.599Z,14.15
2023-03-02T13:22:17.621Z,13.80
2023-03-02T13:25:23.998Z,13.10
2023-03-02T13:28:28.817Z,13.10
2023-03-02T13:31:35.631Z,12.75
2023-03-02T13:34:37.777Z,12.73
2023-03-02T13:37:41.785Z,13.43
2023-03-02T13:40:49.513Z,13.38
2023-03-02T13:43:51.313Z,13.00
2023-03-02T13:46:57.876Z,12.77
2023-03-02T13:50:07.550Z,12.88
2023-03-02T13:53:11.767Z,14.85
2023-03-02T13:56:17.572Z,13.82
2023-03-02T13:59:21.366Z,14.55
2023-03-02T14:02:27.123Z,14.02
2023-03-02T14:05:29.660Z,14.77
2023-03-02T14:08:31.554Z,14.38
2023-03-02T14:11:39.146Z,13.93
2023-03-02T14:14:40.997Z,13.40
2023-03-02T14:17:44.898Z,14.50
2023-03-02T14:20:46.959Z,12.93
2023-03-02T14:23:49.936Z,13.45
2023-03-02T14:26:51.828Z,13.60
2023-03-02T14:29:54.142Z,14.20
2023-03-02T14:32:57.661Z,13.98
2023-03-02T14:36:03.308Z,13.93
2023-03-02T14:39:12.380Z,14.68
2023-03-02T14:42:17.620Z,15.02
2023-03-02T14:45:22.321Z,15.80
2023-03-02T14:48:25.638Z,15.73
2023-03-02T14:51:32.618Z,14.80
2023-03-02T14:54:39.448Z,16.13
2023-03-02T14:57:42.305Z,15.18
2023-03-02T15:00:44.854Z,15.10
2023-03-02T15:03:50.092Z,16.00
2023-03-02T15:06:53.675Z,14.85
2023-03-02T15:09:56.381Z,15.35
2023-03-02T15:13:00.251Z,14.63
2023-03-02T15:16:02.049Z,15.27
2023-03-02T15:19:10.755Z,15.77
2023-03-02T15:22:15.396Z,15.95
2023-03-02T15:25:18.370Z,15.88
2023-03-02T15:28:21.405Z,16.45
2023-03-02T15:31:24.047Z,16.40
2023-03-02T15:34:29.375Z,16.42
2023-03-02T15:37:32.272Z,15.02
2023-03-02T15:40:34.047Z,16.40
2023-03-02T15:43:40.544Z,16.60
2023-03-02T15:46:42.376Z,16.67
2023-03-02T15:49:45.828Z,16.83
2023-03-02T15:52:50.513Z,17.67
2023-03-02T15:55:52.452Z,18.25
2023-03-02T15:58:54.728Z,17.67
2023-03-02T16:01:57.591Z,19.45
2023-03-02T16:05:00.850Z,17.73
2023-03-02T16:08:04.523Z,18.10
2023-03-02T16:11:08.134Z,17.95
2023-03-02T16:14:10.734Z,17.65
2023-03-02T16:17:12.560Z,18.45
2023-03-02T16:20:18.131Z,18.42
2023-03-02T16:23:20.567Z,19.63
2023-03-02T16:26:26.067Z,18.75
2023-03-02T16:29:28.392Z,18.23
2023-03-02T16:32:30.321Z,19.48
2023-03-02T16:35:35.016Z,19.13
2023-03-02T16:38:39.144Z,18.38
2023-03-02T16:41:46.006Z,18.92
2023-03-02T16:44:50.207Z,19.60
2023-03-02T16:47:52.141Z,19.02
2023-03-02T16:51:01.832Z,18.58
2023-03-02T16:54:04.417Z,20.50
2023-03-02T16:57:06.464Z,18.63
2023-03-02T17:00:11.503Z,20.27
2023-03-02T17:03:17.699Z,18.95
2023-03-02T17:06:27.845Z,19.58
2023-03-02T17:09:30.254Z,19.73
2023-03-02T17:12:36.514Z,20.20
2023-03-02T17:15:40.042Z,20.58
2023-03-02T17:18:42.351Z,20.55
2023-03-02T17:21:46.014Z,20.85
2023-03-02T17:24:48.875Z,19.90
2023-03-02T17:27:50.639Z,20.30
2023-03-02T17:30:57.891Z,19.00
2023-03-02T17:34:00.502Z,20.50
2023-03-02T17:37:04.251Z,18.67
2023-03-02T17:40:09.327Z,19.08
2023-03-02T17:43:18.913Z,19.08
2023-03-02T17:46:24.034Z,19.60
2023-03-02T17:49:27.361Z,18.30
2023-03-02T17:52:33.412Z,17.88
2023-03-02T17:55:36.379Z,18.33
2023-03-02T17:58:44.936Z,19.27
2023-03-02T18:01:48.322Z,16.90
2023-03-02T18:04:51.518Z,18.00
2023-03-02T18:07:59.717Z,18.15
2023-03-02T18:11:04.767Z,17.03
2023-03-02T18:14:13.184Z,17.52
2023-03-02T18:17:20.373Z,16.13
2023-03-02T18:20:23.887Z,16.92
2023-03-02T18:23:28.029Z,17.10
2023-03-02T18:26:33.179Z,16.02
2023-03-02T18:29:38.988Z,16.92
2023-03-02T18:32:42.192Z,15.73
2023-03-02T18:35:46.721Z,16.02
2023-03-02T18:38:51.479Z,15.13
2023-03-02T18:41:55.981Z,15.40
2023-03-02T18:45:01.130Z,15.38
2023-03-02T18:48:04.645Z,15.48
2023-03-02T18:51:07.870Z,15.23
2023-03-02T18:54:18.788Z,15.32
2023-03-02T18:57:21.880Z,14.93
2023-03-02T19:00:27.914Z,15.77
2023-03-02T19:03:35.345Z,15.88
2023-03-02T19:06:38.696Z,14.90
2023-03-02T19:09:42.818Z,14.65
2023-03-02T19:12:46.414Z,15.70
2023-03-02T19:15:49.411Z,15.80
2023-03-02T19:18:51.978Z,14.70
2023-03-02T19:21:54.648Z,15.65
2023-03-02T19:24:59.713Z,14.32
2023-03-02T19:28:09.525Z,14.13
2023-03-02T19:31:12.984Z,15.60
2023-03-02T19:34:16.785Z,14.30
2023-03-02T19:37:29.519Z,14.88
2023-03-02T19:40:34.714Z,14.95
2023-03-02T19:43:38.525Z,15.25
2023-03-02T19:46:43.151Z,14.38
2023-03-02T19:49:46.127Z,15.50
2023-03-02T19:52:48.833Z,14.07
2023-03-02T19:55:59.622Z,14.88
2023-03-02T19:59:02.781Z,14.98
2023-03-02T20:02:09.212Z,15.93
2023-03-02T20:05:12.791Z,14.80
2023-03-02T20:08:15.686Z,15.13
2023-03-02T20:11:19.912Z,15.27
2023-03-02T20:14:33.569Z,15.60
2023-03-02T20:17:36.673Z,16.63
2023-03-02T20:20:41.074Z,15.18
2023-03-02T20:23:47.066Z,16.42
2023-03-02T20:26:55.449Z,15.13
2023-03-02T20:29:58.346Z,17.33
2023-03-02T20:33:03.704Z,16.20
2023-03-02T20:36:07.988Z,16.30
2023-03-02T20:39:15.506Z,16.60
2023-03-02T20:42:20.464Z,16.63
2023-03-02T20:45:23.956Z,16.13
2023-03-02T20:48:27.810Z,16.45
2023-03-02T20:51:30.810Z,16.20
2023-03-02T20:54:40.282Z,15.90
2023-03-02T20:57:52.303Z,15.93
2023-03-02T21:00:56.436Z,17.42
2023-03-02T21:03:59.285Z,17.63
2023-03-02T21:07:02.419Z,16.75
2023-03-02T21:10:07.708Z,17.13
2023-03-02T21:13:14.740Z,16.38
2023-03-02T21:16:19.293Z,16.48
2023-03-02T21:19:22.013Z,17.30
2023-03-02T21:22:24.965Z,16.77
2023-03-02T21:25:27.846Z,17.05
2023-03-02T21:28:38.606Z,17.55
2023-03-02T21:31:41.701Z,16.80
2023-03-02T21:34:44.482Z,16.80
2023-03-02T21:37:48.021Z,17.67
2023-03-02T21:40:50.893Z,17.33
2023-03-02T21:43:54.689Z,16.88
2023-03-02T21:46:59.336Z,16.88
2023-03-02T21:50:01.961Z,16.80
2023-03-02T21:53:09.899Z,17.20
2023-03-02T21:56:17.689Z,18.27
2023-03-02T21:59:20.823Z,17.58
2023-03-02T22:02:25.966Z,17.55
2023-03-02T22:05:28.049Z,18.65
2023-03-02T22:08:30.293Z,17.85
2023-03-02T22:11:35.336Z,16.55
2023-03-02T22:14:39.835Z,17.58
2023-03-02T22:17:44.972Z,17.98
2023-03-02T22:20:48.923Z,20.65
2023-03-02T22:23:53.422Z,18.88
2023-03-02T22:27:02.124Z,18.77
2023-03-02T22:30:18.606Z,18.52
2023-03-02T22:33:22.953Z,18.05
2023-03-02T22:36:26.572Z,19.13
2023-03-02T22:39:31.591Z,18.05
2023-03-02T22:42:37.467Z,19.30
2023-03-02T22:45:41.663Z,18.42
2023-03-02T22:48:44.844Z,19.55
2023-03-02T22:51:46.614Z,20.85
2023-03-02T22:54:51.542Z,22.88
2023-03-02T22:57:55.919Z,24.98
2023-03-02T23:01:00.511Z,24.05
2023-03-02T23:04:15.201Z,23.02
2023-03-02T23:07:19.622Z,22.58
2023-03-02T23:10:22.371Z,19.77
2023-03-02T23:13:31.077Z,18.80
2023-03-02T23:16:35.780Z,21.75
2023-03-02T23:19:39.190Z,20.17
2023-03-02T23:22:43.450Z,19.25
2023-03-02T23:25:46.293Z,18.48
2023-03-02T23:28:49.435Z,19.20
2023-03-02T23:31:53.015Z,20.77
2023-03-02T23:34:54.874Z,21.75
2023-03-02T23:37:59.713Z,20.15
2023-03-02T23:41:01.498Z,17.40
2023-03-02T23:44:06.395Z,18.20
2023-03-02T23:47:10.071Z,17.85
2023-03-02T23:50:12.504Z,17.00
2023-03-02T23:53:14.355Z,19.08
2023-03-02T23:56:16.704Z,18.80
2023-03-02T23:59:18.448Z,18.00
